KFSO

Franklin County State Airport

Highgate, Vermont, USA
METAR KFSO 250035Z AUTO 00000KT 10SM CLR 16/04 A2997 RMK AO2 T01580035
Observed Flight Rules
May-25 @ 00:35 UTC (11 minutes ago) Visual Flight Rules
Visibility Clouds
10 miles
  • Clear skies
Temperatures Readings
Current 16°C / 61°F
Dewpoint 4°C / 39°F
Humidity 45%
Altimeter 29.97" Hg
Pressure 1015 hPa
Elevation 70
METAR KFSO 250035Z AUTO 00000KT 10SM CLR 16/04 A2997 RMK AO2 T01580035
Observed Flight Rules
May-25 @ 00:35 UTC
(11 minutes ago)
VFR
Clouds
  • Clear skies
Temperature Dewpoint
16°C / 61°F 4°C / 39°F
Humidity Altimeter Pressure
45% 29.97" Hg 1015 hPa